sim
Sign-in with your pilot id or email,
or register
Callsign
Passwort

Schedule Details

Flight Number: OEC48
Departure: Amsterdam Schiphol Airport (EHAM) at Time
Arrival: Munich Airport (EDDM) at Time
Route: VFR

Weather Information
Getting current METAR information for EHAM 281125Z 14003KT 110V170 2200 0700E R18C/P2000N R27/1900U R18R/P2000U R06/1800U BR FEW001 BKN002 15/14 Q1008 NOSIG
Getting current METAR information for EDDM 281120Z 27005KT 9999 FEW007 BKN043 09/07 Q1011 NOSIG

Schedule Frequency

Route Map